createdAt,value
2018-10-12T00:00:10.385Z,18.60
2018-10-12T00:02:37.618Z,19.73
2018-10-12T00:05:04.805Z,17.20
2018-10-12T00:07:31.986Z,21.17
2018-10-12T00:09:59.182Z,18.57
2018-10-12T00:12:26.366Z,18.67
2018-10-12T00:14:53.543Z,19.32
2018-10-12T00:17:20.746Z,15.10
2018-10-12T00:19:48.013Z,16.52
2018-10-12T00:22:15.188Z,16.35
2018-10-12T00:24:42.412Z,23.00
2018-10-12T00:27:09.594Z,17.45
2018-10-12T00:29:36.792Z,16.82
2018-10-12T00:32:03.982Z,18.90
2018-10-12T00:34:31.159Z,19.77
2018-10-12T00:36:58.352Z,19.02
2018-10-12T00:39:25.616Z,16.48
2018-10-12T00:41:52.875Z,17.25
2018-10-12T00:44:20.089Z,18.10
2018-10-12T00:46:47.271Z,16.10
2018-10-12T00:49:14.463Z,16.90
2018-10-12T00:51:41.672Z,15.30
2018-10-12T00:54:08.867Z,24.43
2018-10-12T00:56:36.047Z,16.77
2018-10-12T00:59:03.246Z,20.50
2018-10-12T01:01:30.422Z,20.02
2018-10-12T01:03:57.616Z,24.80
2018-10-12T01:06:24.879Z,17.45
2018-10-12T01:08:52.065Z,20.55
2018-10-12T01:11:19.251Z,21.52
2018-10-12T01:13:46.533Z,19.00
2018-10-12T01:16:13.710Z,18.70
2018-10-12T01:18:40.907Z,20.12
2018-10-12T01:21:08.188Z,21.52
2018-10-12T01:23:35.383Z,19.62
2018-10-12T01:26:02.584Z,23.22
2018-10-12T01:28:29.782Z,20.02
2018-10-12T01:30:57.014Z,24.15
2018-10-12T01:33:24.245Z,19.20
2018-10-12T01:35:51.442Z,24.00
2018-10-12T01:38:18.645Z,18.02
2018-10-12T01:40:45.863Z,22.65
2018-10-12T01:43:13.063Z,21.10
2018-10-12T01:45:40.263Z,20.02
2018-10-12T01:48:07.552Z,23.80
2018-10-12T01:50:34.752Z,18.32
2018-10-12T01:53:02.059Z,23.62
2018-10-12T01:55:29.291Z,20.23
2018-10-12T01:57:56.491Z,22.90
2018-10-12T02:00:23.711Z,24.10
2018-10-12T02:02:50.911Z,19.85
2018-10-12T02:05:18.104Z,20.97
2018-10-12T02:07:45.329Z,20.92
2018-10-12T02:10:12.527Z,22.48
2018-10-12T02:12:39.791Z,23.25
2018-10-12T02:15:07.007Z,19.45
2018-10-12T02:17:34.222Z,21.60
2018-10-12T02:20:01.416Z,27.62
2018-10-12T02:22:28.627Z,23.25
2018-10-12T02:24:55.861Z,16.82
2018-10-12T02:27:23.078Z,22.95
2018-10-12T02:29:50.279Z,23.30
2018-10-12T02:32:17.463Z,18.52
2018-10-12T02:34:44.683Z,20.40
2018-10-12T02:37:11.900Z,19.15
2018-10-12T02:39:39.147Z,25.27
2018-10-12T02:42:06.633Z,22.42
2018-10-12T02:44:33.849Z,24.30
2018-10-12T02:47:01.055Z,22.60
2018-10-12T02:49:28.240Z,19.32
2018-10-12T02:51:55.499Z,20.70
2018-10-12T02:54:22.700Z,19.80
2018-10-12T02:56:49.921Z,18.87
2018-10-12T02:59:17.106Z,19.77
2018-10-12T03:01:44.283Z,25.77
2018-10-12T03:04:11.483Z,21.00
2018-10-12T03:06:38.705Z,19.35
2018-10-12T03:09:07.324Z,21.60
2018-10-12T03:11:34.642Z,20.75
2018-10-12T03:14:01.866Z,20.62
2018-10-12T03:16:29.055Z,22.48
2018-10-12T03:18:56.242Z,21.82
2018-10-12T03:21:23.453Z,23.07
2018-10-12T03:23:50.699Z,24.90
2018-10-12T03:26:17.875Z,24.18
2018-10-12T03:28:45.094Z,22.50
2018-10-12T03:31:12.275Z,23.92
2018-10-12T03:33:39.466Z,24.37
2018-10-12T03:36:06.679Z,23.60
2018-10-12T03:38:33.877Z,23.38
2018-10-12T03:41:01.096Z,24.12
2018-10-12T03:43:28.287Z,24.70
2018-10-12T03:45:55.502Z,22.80
2018-10-12T03:48:22.874Z,24.25
2018-10-12T03:50:50.166Z,22.87
2018-10-12T03:53:17.582Z,24.98
2018-10-12T03:55:44.785Z,25.65
2018-10-12T03:58:11.972Z,28.00
2018-10-12T04:00:39.181Z,25.57
2018-10-12T04:03:06.373Z,25.77
2018-10-12T04:05:33.570Z,27.35
2018-10-12T04:08:00.793Z,26.17
2018-10-12T04:10:28.029Z,28.95
2018-10-12T04:12:55.337Z,27.48
2018-10-12T04:15:22.688Z,24.27
2018-10-12T04:17:49.911Z,25.85
2018-10-12T04:20:17.096Z,25.88
2018-10-12T04:22:44.274Z,24.55
2018-10-12T04:25:11.476Z,25.20
2018-10-12T04:27:38.846Z,24.12
2018-10-12T04:30:06.154Z,24.20
2018-10-12T04:32:33.366Z,27.07
2018-10-12T04:35:00.605Z,23.35
2018-10-12T04:37:27.820Z,23.18
2018-10-12T04:39:57.520Z,21.45
2018-10-12T04:42:24.714Z,25.57
2018-10-12T04:44:52.070Z,24.40
2018-10-12T04:47:19.911Z,25.10
2018-10-12T04:49:47.193Z,24.67
2018-10-12T04:52:14.987Z,24.45
2018-10-12T04:54:42.174Z,25.02
2018-10-12T04:57:09.350Z,25.80
2018-10-12T04:59:36.546Z,29.20
2018-10-12T05:02:03.738Z,25.65
2018-10-12T05:04:30.942Z,26.30
2018-10-12T05:06:58.160Z,28.65
2018-10-12T05:09:25.412Z,28.98
2018-10-12T05:11:52.615Z,31.27
2018-10-12T05:14:19.814Z,32.55
2018-10-12T05:16:47.015Z,30.00
2018-10-12T05:19:14.319Z,30.15
2018-10-12T05:21:41.504Z,33.67
2018-10-12T05:24:08.691Z,32.05
2018-10-12T05:26:35.895Z,33.02
2018-10-12T05:29:03.129Z,32.33
2018-10-12T05:31:30.345Z,32.83
2018-10-12T05:33:57.555Z,31.80
2018-10-12T05:36:24.770Z,29.45
2018-10-12T05:38:51.946Z,32.65
2018-10-12T05:41:19.179Z,31.37
2018-10-12T05:43:46.482Z,31.17
2018-10-12T05:46:13.605Z,30.85
2018-10-12T05:48:46.505Z,30.85
2018-10-12T05:51:14.283Z,31.55
2018-10-12T05:53:41.603Z,40.30
2018-10-12T05:56:08.799Z,32.38
2018-10-12T05:58:36.008Z,28.50
2018-10-12T06:01:03.185Z,36.28
2018-10-12T06:03:30.395Z,33.78
2018-10-12T06:05:57.604Z,28.52
2018-10-12T06:08:24.796Z,32.63
2018-10-12T06:10:51.973Z,32.95
2018-10-12T06:13:19.441Z,33.95
2018-10-12T06:15:46.680Z,31.45
2018-10-12T06:18:14.005Z,29.67
2018-10-12T06:20:42.076Z,28.32
2018-10-12T06:23:09.285Z,31.97
2018-10-12T06:25:36.733Z,32.55
2018-10-12T06:28:04.091Z,36.50
2018-10-12T06:30:31.400Z,26.30
2018-10-12T06:32:58.686Z,23.38
2018-10-12T06:35:26.563Z,31.48
2018-10-12T06:37:53.763Z,20.80
2018-10-12T06:40:20.969Z,24.23
2018-10-12T06:42:48.375Z,26.48
2018-10-12T06:45:15.576Z,34.67
2018-10-12T06:47:42.783Z,26.57
2018-10-12T06:50:10.004Z,33.28
2018-10-12T06:52:37.731Z,27.87
2018-10-12T06:55:05.315Z,24.77
2018-10-12T06:57:32.527Z,24.35
2018-10-12T06:59:59.781Z,36.23
2018-10-12T07:02:26.940Z,36.65
2018-10-12T07:04:54.138Z,26.87
2018-10-12T07:07:21.413Z,28.02
2018-10-12T07:09:48.615Z,23.25
2018-10-12T07:12:16.225Z,39.50
2018-10-12T07:14:43.525Z,36.58
2018-10-12T07:17:10.716Z,20.77
2018-10-12T07:19:38.048Z,22.87
2018-10-12T07:22:05.186Z,20.37
2018-10-12T07:24:32.358Z,26.87
2018-10-12T07:26:59.553Z,18.90
2018-10-12T07:29:26.783Z,23.67
2018-10-12T07:31:53.977Z,21.42
2018-10-12T07:34:21.436Z,21.17
2018-10-12T07:36:48.627Z,23.07
2018-10-12T07:39:15.878Z,20.05
2018-10-12T07:41:43.204Z,18.45
2018-10-12T07:44:10.396Z,29.20
2018-10-12T07:46:37.590Z,25.48
2018-10-12T07:49:04.937Z,26.20
2018-10-12T07:51:32.358Z,19.30
2018-10-12T07:53:59.576Z,27.50
2018-10-12T07:56:26.763Z,19.62
2018-10-12T07:58:53.955Z,21.80
2018-10-12T08:01:21.265Z,21.17
2018-10-12T08:03:48.446Z,21.42
2018-10-12T08:06:15.671Z,18.15
2018-10-12T08:08:42.901Z,17.48
2018-10-12T08:11:10.083Z,22.58
2018-10-12T08:13:37.321Z,19.85
2018-10-12T08:16:04.578Z,15.63
2018-10-12T08:18:31.754Z,16.02
2018-10-12T08:20:58.965Z,17.87
2018-10-12T08:23:26.143Z,14.93
2018-10-12T08:25:53.330Z,13.93
2018-10-12T08:28:20.748Z,21.45
2018-10-12T08:30:47.943Z,13.75
2018-10-12T08:33:15.163Z,17.35
2018-10-12T08:35:42.373Z,14.35
2018-10-12T08:38:09.583Z,13.68
2018-10-12T08:40:36.836Z,13.80
2018-10-12T08:43:04.019Z,15.05
2018-10-12T08:45:31.372Z,12.18
2018-10-12T08:47:58.590Z,11.90
2018-10-12T08:50:25.787Z,15.58
2018-10-12T08:52:52.985Z,13.50
2018-10-12T08:55:20.257Z,16.17
2018-10-12T08:57:47.598Z,14.07
2018-10-12T09:00:15.162Z,12.68
2018-10-12T09:02:42.389Z,17.42
2018-10-12T09:05:09.590Z,13.38
2018-10-12T09:07:36.873Z,16.62
2018-10-12T09:10:04.377Z,12.88
2018-10-12T09:12:31.573Z,11.70
2018-10-12T09:14:58.828Z,12.37
2018-10-12T09:17:26.044Z,14.55
2018-10-12T09:19:53.370Z,15.00
2018-10-12T09:22:20.734Z,11.68
2018-10-12T09:24:48.143Z,12.80
2018-10-12T09:27:15.352Z,14.05
2018-10-12T09:29:42.527Z,15.40
2018-10-12T09:32:09.749Z,14.85
2018-10-12T09:34:36.961Z,13.68
2018-10-12T09:37:04.211Z,12.40
2018-10-12T09:39:31.457Z,22.10
2018-10-12T09:41:59.013Z,13.62
2018-10-12T09:44:26.264Z,15.80
2018-10-12T09:46:53.439Z,12.85
2018-10-12T09:49:20.704Z,15.43
2018-10-12T09:51:47.920Z,13.70
2018-10-12T09:54:15.144Z,13.85
2018-10-12T09:56:45.799Z,14.53
2018-10-12T09:59:13.055Z,14.25
2018-10-12T10:01:45.684Z,12.23
2018-10-12T10:04:17.893Z,17.32
2018-10-12T10:06:45.082Z,15.65
2018-10-12T10:09:12.410Z,15.30
2018-10-12T10:11:39.659Z,17.75
2018-10-12T10:14:06.879Z,11.95
2018-10-12T10:16:34.059Z,11.35
2018-10-12T10:19:01.312Z,12.45
2018-10-12T10:21:28.515Z,11.05
2018-10-12T10:23:55.715Z,11.12
2018-10-12T10:26:22.971Z,10.93
2018-10-12T10:28:50.139Z,9.93
2018-10-12T10:31:17.361Z,12.33
2018-10-12T10:33:44.562Z,9.65
2018-10-12T10:36:11.748Z,14.55
2018-10-12T10:38:39.025Z,26.52
2018-10-12T10:41:06.262Z,18.07
2018-10-12T10:43:33.475Z,25.43
2018-10-12T10:46:00.875Z,11.12
2018-10-12T10:48:28.251Z,10.63
2018-10-12T10:50:55.796Z,15.40
2018-10-12T10:53:23.673Z,33.50
2018-10-12T10:55:50.871Z,36.90
2018-10-12T10:58:18.168Z,12.30
2018-10-12T11:00:45.651Z,20.27
2018-10-12T11:03:14.128Z,14.28
2018-10-12T11:05:41.336Z,9.18
2018-10-12T11:08:08.527Z,14.00
2018-10-12T11:10:35.756Z,15.72
2018-10-12T11:13:04.154Z,20.70
2018-10-12T11:15:31.492Z,15.32
2018-10-12T11:17:58.697Z,15.00
2018-10-12T11:20:25.889Z,37.93
2018-10-12T11:22:53.132Z,33.05
2018-10-12T11:25:20.592Z,19.12
2018-10-12T11:27:48.373Z,11.25
2018-10-12T11:30:15.767Z,5.85
2018-10-12T11:32:43.468Z,9.78
2018-10-12T11:35:10.739Z,20.05
2018-10-12T11:37:37.924Z,15.43
2018-10-12T11:40:05.123Z,8.43
2018-10-12T11:42:38.085Z,6.13
2018-10-12T11:45:05.318Z,7.53
2018-10-12T11:47:32.495Z,37.10
2018-10-12T11:49:59.781Z,9.47
2018-10-12T11:52:26.971Z,14.70
2018-10-12T11:54:54.142Z,10.60
2018-10-12T11:57:21.437Z,6.87
2018-10-12T11:59:48.633Z,9.17
2018-10-12T12:02:15.842Z,11.23
2018-10-12T12:04:43.052Z,11.70
2018-10-12T12:07:10.274Z,11.20
2018-10-12T12:09:37.472Z,6.67
2018-10-12T12:12:04.642Z,11.47
2018-10-12T12:14:31.840Z,10.23
2018-10-12T12:19:32.711Z,25.10
2018-10-12T12:21:59.921Z,15.23
2018-10-12T12:24:27.150Z,10.60
2018-10-12T12:26:54.327Z,10.03
2018-10-12T12:29:21.502Z,4.67
2018-10-12T12:31:48.787Z,12.77
2018-10-12T12:34:15.950Z,9.47
2018-10-12T12:36:43.123Z,7.10
2018-10-12T12:39:10.355Z,61.27
2018-10-12T12:41:37.547Z,57.33
2018-10-12T12:44:04.743Z,23.43
2018-10-12T12:46:31.962Z,12.30
2018-10-12T12:48:59.429Z,24.73
2018-10-12T12:51:26.375Z,13.20
2018-10-12T12:53:53.700Z,22.80
2018-10-12T12:56:20.859Z,7.90
2018-10-12T12:58:48.040Z,8.70
2018-10-12T13:01:15.238Z,5.23
2018-10-12T13:03:42.430Z,5.67
2018-10-12T13:06:09.616Z,8.87
2018-10-12T13:08:36.822Z,16.10
2018-10-12T13:11:04.042Z,26.77
2018-10-12T13:13:31.279Z,9.57
2018-10-12T13:15:58.452Z,7.33
2018-10-12T13:18:25.665Z,39.90
2018-10-12T13:20:52.870Z,16.40
2018-10-12T13:23:20.072Z,14.30
2018-10-12T13:25:47.283Z,20.37
2018-10-12T13:28:14.501Z,27.37
2018-10-12T13:30:42.088Z,19.27
2018-10-12T13:33:09.827Z,14.90
2018-10-12T13:35:37.545Z,9.87
2018-10-12T13:38:05.224Z,7.20
2018-10-12T13:40:32.861Z,7.10
2018-10-12T13:43:00.498Z,9.03
2018-10-12T13:45:28.083Z,7.70
2018-10-12T13:47:55.711Z,17.50
2018-10-12T13:50:22.957Z,10.53
2018-10-12T13:52:50.141Z,13.40
2018-10-12T13:55:17.422Z,13.43
2018-10-12T13:57:44.624Z,6.47
2018-10-12T14:00:11.860Z,7.97
2018-10-12T14:02:39.060Z,6.90
2018-10-12T14:05:06.237Z,5.70
2018-10-12T14:07:33.440Z,9.03
2018-10-12T14:10:00.635Z,10.50
2018-10-12T14:12:27.872Z,8.80
2018-10-12T14:14:55.031Z,12.10
2018-10-12T14:17:22.198Z,5.30
2018-10-12T14:19:49.441Z,8.27
2018-10-12T14:22:16.975Z,7.90
2018-10-12T14:24:44.298Z,7.10
2018-10-12T14:27:11.474Z,5.40
2018-10-12T14:29:38.639Z,9.70
2018-10-12T14:32:05.844Z,12.47
2018-10-12T14:34:33.029Z,6.40
2018-10-12T14:37:00.220Z,11.13
2018-10-12T14:39:27.416Z,7.93
2018-10-12T14:41:54.619Z,10.90
2018-10-12T14:44:21.921Z,10.13
2018-10-12T14:46:48.980Z,10.80
2018-10-12T14:49:16.299Z,8.00
2018-10-12T14:51:43.526Z,6.90
2018-10-12T14:54:10.724Z,6.57
2018-10-12T14:56:37.939Z,4.53
2018-10-12T14:59:05.383Z,7.23
2018-10-12T15:01:32.519Z,6.20
2018-10-12T15:03:59.735Z,11.30
2018-10-12T15:06:26.914Z,5.23
2018-10-12T15:08:54.087Z,7.83
2018-10-12T15:11:21.270Z,9.97
2018-10-12T15:13:48.457Z,9.23
2018-10-12T15:16:15.848Z,3.30
2018-10-12T15:18:43.053Z,4.03
2018-10-12T15:21:10.343Z,4.87
2018-10-12T15:23:37.466Z,6.87
2018-10-12T15:26:04.651Z,7.13
2018-10-12T15:28:31.839Z,4.30
2018-10-12T15:30:59.026Z,5.80
2018-10-12T15:33:26.220Z,7.47
2018-10-12T15:35:53.407Z,6.07
2018-10-12T15:38:20.653Z,5.13
2018-10-12T15:40:47.833Z,5.90
2018-10-12T15:43:15.087Z,4.03
2018-10-12T15:45:42.256Z,5.10
2018-10-12T15:48:09.461Z,6.77
2018-10-12T15:50:36.649Z,7.73
2018-10-12T15:53:04.091Z,11.60
2018-10-12T15:55:31.266Z,4.60
2018-10-12T15:57:58.468Z,19.67
2018-10-12T16:00:25.667Z,9.87
2018-10-12T16:02:52.863Z,7.50
2018-10-12T16:05:20.068Z,8.57
2018-10-12T16:07:47.246Z,5.07
2018-10-12T16:10:14.591Z,3.73
2018-10-12T16:12:41.791Z,4.50
2018-10-12T16:15:08.996Z,4.70
2018-10-12T16:17:36.162Z,5.07
2018-10-12T16:20:03.456Z,10.20
2018-10-12T16:22:30.703Z,7.10
2018-10-12T16:25:03.510Z,7.63
2018-10-12T16:27:30.705Z,6.30
2018-10-12T16:29:57.890Z,6.67
2018-10-12T16:32:25.081Z,8.20
2018-10-12T16:34:52.252Z,6.00
2018-10-12T16:37:19.433Z,10.53
2018-10-12T16:39:46.640Z,9.40
2018-10-12T16:42:14.200Z,10.70
2018-10-12T16:44:41.372Z,9.53
2018-10-12T16:47:08.570Z,9.53
2018-10-12T16:49:36.047Z,11.28
2018-10-12T16:52:03.219Z,8.63
2018-10-12T16:54:30.399Z,8.50
2018-10-12T16:56:57.596Z,14.53
2018-10-12T16:59:24.771Z,8.95
2018-10-12T17:01:52.228Z,13.18
2018-10-12T17:04:19.443Z,25.85
2018-10-12T17:06:46.643Z,17.17
2018-10-12T17:09:13.843Z,11.50
2018-10-12T17:11:41.043Z,11.57
2018-10-12T17:14:08.245Z,11.55
2018-10-12T17:16:35.435Z,10.32
2018-10-12T17:19:02.629Z,10.60
2018-10-12T17:21:29.881Z,10.25
2018-10-12T17:23:57.087Z,7.92
2018-10-12T17:26:24.270Z,7.87
2018-10-12T17:28:51.482Z,15.53
2018-10-12T17:31:18.708Z,9.73
2018-10-12T17:33:45.884Z,7.17
2018-10-12T17:36:13.068Z,9.30
2018-10-12T17:38:40.276Z,11.65
2018-10-12T17:41:12.698Z,6.40
2018-10-12T17:43:39.894Z,10.88
2018-10-12T17:46:07.119Z,13.03
2018-10-12T17:48:34.365Z,11.33
2018-10-12T17:51:01.569Z,16.05
2018-10-12T17:53:28.771Z,10.90
2018-10-12T17:55:55.957Z,15.55
2018-10-12T17:58:23.271Z,11.45
2018-10-12T18:00:50.459Z,14.90
2018-10-12T18:03:17.651Z,12.10
2018-10-12T18:05:44.925Z,18.02
2018-10-12T18:08:12.110Z,13.78
2018-10-12T18:10:39.306Z,16.77
2018-10-12T18:13:06.492Z,12.18
2018-10-12T18:15:33.731Z,16.10
2018-10-12T18:18:00.919Z,14.85
2018-10-12T18:20:28.085Z,10.35
2018-10-12T18:22:55.275Z,13.15
2018-10-12T18:25:22.462Z,10.32
2018-10-12T18:27:49.643Z,15.75
2018-10-12T18:30:16.938Z,11.45
2018-10-12T18:32:44.140Z,14.13
2018-10-12T18:35:11.332Z,19.30
2018-10-12T18:37:38.543Z,16.75
2018-10-12T18:40:05.716Z,17.05
2018-10-12T18:42:32.917Z,18.65
2018-10-12T18:45:00.246Z,14.43
2018-10-12T18:47:27.446Z,15.55
2018-10-12T18:49:54.641Z,14.55
2018-10-12T18:52:22.160Z,17.67
2018-10-12T18:54:49.327Z,12.18
2018-10-12T18:57:16.512Z,18.90
2018-10-12T18:59:43.786Z,13.32
2018-10-12T19:02:11.015Z,12.70
2018-10-12T19:04:38.323Z,12.45
2018-10-12T19:07:05.517Z,17.27
2018-10-12T19:09:32.724Z,11.75
2018-10-12T19:12:00.123Z,12.80
2018-10-12T19:14:27.331Z,18.55
2018-10-12T19:16:54.563Z,11.40
2018-10-12T19:19:21.760Z,15.10
2018-10-12T19:21:48.981Z,14.28
2018-10-12T19:24:16.194Z,12.47
2018-10-12T19:26:43.464Z,15.10
2018-10-12T19:29:10.620Z,16.48
2018-10-12T19:31:37.964Z,13.28
2018-10-12T19:34:05.014Z,16.85
2018-10-12T19:36:32.199Z,19.98
2018-10-12T19:38:59.404Z,21.07
2018-10-12T19:41:26.596Z,17.50
2018-10-12T19:43:53.888Z,16.52
2018-10-12T19:46:21.103Z,12.15
2018-10-12T19:48:48.300Z,13.70
2018-10-12T19:51:15.505Z,15.68
2018-10-12T19:53:42.699Z,13.45
2018-10-12T19:56:10.067Z,13.90
2018-10-12T19:58:37.300Z,20.00
2018-10-12T20:01:04.486Z,21.80
2018-10-12T20:03:31.667Z,16.60
2018-10-12T20:05:58.871Z,32.15
2018-10-12T20:08:26.058Z,23.02
2018-10-12T20:10:53.356Z,18.37
2018-10-12T20:13:20.552Z,14.50
2018-10-12T20:15:47.739Z,14.40
2018-10-12T20:18:14.945Z,16.75
2018-10-12T20:20:42.140Z,17.23
2018-10-12T20:23:09.318Z,20.00
2018-10-12T20:25:36.562Z,15.90
2018-10-12T20:28:03.750Z,16.00
2018-10-12T20:30:30.955Z,17.65
2018-10-12T20:32:58.188Z,13.83
2018-10-12T20:35:25.367Z,20.52
2018-10-12T20:37:52.562Z,16.65
2018-10-12T20:40:19.754Z,21.60
2018-10-12T20:42:46.971Z,17.12
2018-10-12T20:45:14.194Z,13.75
2018-10-12T20:47:41.457Z,13.65
2018-10-12T20:50:08.880Z,13.88
2018-10-12T20:52:36.131Z,15.25
2018-10-12T20:55:03.327Z,14.10
2018-10-12T20:57:30.548Z,15.48
2018-10-12T20:59:57.747Z,18.85
2018-10-12T21:02:25.025Z,16.57
2018-10-12T21:04:52.235Z,16.82
2018-10-12T21:07:19.410Z,14.45
2018-10-12T21:09:46.655Z,16.55
2018-10-12T21:12:13.856Z,16.97
2018-10-12T21:14:41.052Z,17.05
2018-10-12T21:17:08.262Z,13.60
2018-10-12T21:19:35.521Z,24.80
2018-10-12T21:22:02.719Z,46.95
2018-10-12T21:24:30.001Z,32.42
2018-10-12T21:26:57.202Z,19.75
2018-10-12T21:29:24.389Z,21.20
2018-10-12T21:31:51.656Z,16.05
2018-10-12T21:34:19.571Z,16.70
2018-10-12T21:36:46.812Z,13.65
2018-10-12T21:39:14.436Z,15.53
2018-10-12T21:41:41.640Z,16.02
2018-10-12T21:44:09.145Z,16.40
2018-10-12T21:46:36.349Z,20.52
2018-10-12T21:49:03.561Z,14.73
2018-10-12T21:51:30.746Z,16.45
2018-10-12T21:53:57.966Z,18.73
2018-10-12T21:56:25.164Z,17.35
2018-10-12T21:58:52.374Z,15.20
2018-10-12T22:01:19.556Z,14.03
2018-10-12T22:03:46.855Z,13.03
2018-10-12T22:06:14.044Z,14.33
2018-10-12T22:08:46.791Z,16.67
2018-10-12T22:11:14.004Z,14.35
2018-10-12T22:13:41.426Z,12.75
2018-10-12T22:16:08.607Z,11.73
2018-10-12T22:18:35.806Z,10.32
2018-10-12T22:21:03.016Z,13.20
2018-10-12T22:23:30.216Z,11.90
2018-10-12T22:25:57.510Z,13.32
2018-10-12T22:28:24.705Z,9.75
2018-10-12T22:30:51.921Z,14.18
2018-10-12T22:33:19.107Z,17.23
2018-10-12T22:35:46.363Z,14.78
2018-10-12T22:38:13.564Z,12.78
2018-10-12T22:40:40.743Z,12.07
2018-10-12T22:43:07.980Z,13.20
2018-10-12T22:45:35.167Z,15.18
2018-10-12T22:48:02.359Z,13.65
2018-10-12T22:50:29.627Z,10.03
2018-10-12T22:52:56.836Z,16.00
2018-10-12T22:55:24.069Z,14.43
2018-10-12T22:57:55.592Z,13.43
2018-10-12T23:00:22.874Z,13.20
2018-10-12T23:02:50.082Z,14.98
2018-10-12T23:05:17.551Z,16.07
2018-10-12T23:07:44.756Z,14.73
2018-10-12T23:10:11.984Z,14.38
2018-10-12T23:12:39.244Z,12.07
2018-10-12T23:15:06.454Z,13.98
2018-10-12T23:17:33.668Z,13.05
2018-10-12T23:20:00.899Z,15.25
2018-10-12T23:22:28.144Z,17.05
2018-10-12T23:24:55.326Z,18.85
2018-10-12T23:27:22.557Z,18.52
2018-10-12T23:29:49.797Z,13.78
2018-10-12T23:32:16.999Z,17.40
2018-10-12T23:34:44.303Z,16.60
2018-10-12T23:37:11.554Z,15.90
2018-10-12T23:39:38.742Z,15.50
2018-10-12T23:42:05.943Z,12.33
2018-10-12T23:44:33.158Z,12.73
2018-10-12T23:47:00.372Z,19.75
2018-10-12T23:49:27.613Z,14.35
2018-10-12T23:51:54.831Z,12.75
2018-10-12T23:54:22.122Z,15.25
2018-10-12T23:56:49.326Z,12.40
2018-10-12T23:59:16.539Z,16.75
